sensor_id;sensor_type;location;lat;lon;timestamp;pressure;altitude;pressure_sealevel;temperature;humidity
72061;BME280;59925;52.136;5.420;2023-04-15T00:01:54;101049.56;;;7.42;62.54
72061;BME280;59925;52.136;5.420;2023-04-15T00:04:21;101054.09;;;7.42;62.70
72061;BME280;59925;52.136;5.420;2023-04-15T00:06:51;101052.50;;;7.41;62.72
72061;BME280;59925;52.136;5.420;2023-04-15T00:09:20;101053.78;;;7.38;62.55
72061;BME280;59925;52.136;5.420;2023-04-15T00:11:47;101048.69;;;7.36;62.58
72061;BME280;59925;52.136;5.420;2023-04-15T00:14:13;101049.72;;;7.35;62.66
72061;BME280;59925;52.136;5.420;2023-04-15T00:16:40;101053.69;;;7.33;63.09
72061;BME280;59925;52.136;5.420;2023-04-15T00:19:06;101053.94;;;7.31;62.82
72061;BME280;59925;52.136;5.420;2023-04-15T00:21:33;101049.66;;;7.30;63.11
72061;BME280;59925;52.136;5.420;2023-04-15T00:23:59;101053.63;;;7.28;63.17
72061;BME280;59925;52.136;5.420;2023-04-15T00:26:26;101042.63;;;7.24;63.29
72061;BME280;59925;52.136;5.420;2023-04-15T00:28:53;101044.72;;;7.22;63.24
72061;BME280;59925;52.136;5.420;2023-04-15T00:31:20;101051.34;;;7.19;63.45
72061;BME280;59925;52.136;5.420;2023-04-15T00:33:47;101042.44;;;7.14;63.69
72061;BME280;59925;52.136;5.420;2023-04-15T00:36:14;101042.13;;;7.10;63.61
72061;BME280;59925;52.136;5.420;2023-04-15T00:38:40;101045.84;;;7.09;63.91
72061;BME280;59925;52.136;5.420;2023-04-15T00:41:08;101046.91;;;7.08;63.50
72061;BME280;59925;52.136;5.420;2023-04-15T00:43:35;101053.75;;;7.04;64.11
72061;BME280;59925;52.136;5.420;2023-04-15T00:46:03;101052.63;;;7.00;64.19
72061;BME280;59925;52.136;5.420;2023-04-15T00:48:31;101060.28;;;6.96;64.41
72061;BME280;59925;52.136;5.420;2023-04-15T00:50:57;101057.53;;;6.91;64.48
72061;BME280;59925;52.136;5.420;2023-04-15T00:53:24;101055.09;;;6.89;64.71
72061;BME280;59925;52.136;5.420;2023-04-15T00:55:51;101053.47;;;6.88;64.55
72061;BME280;59925;52.136;5.420;2023-04-15T00:58:18;101056.63;;;6.85;64.51
72061;BME280;59925;52.136;5.420;2023-04-15T01:00:44;101064.06;;;6.83;64.76
72061;BME280;59925;52.136;5.420;2023-04-15T01:03:11;101056.53;;;6.80;64.91
72061;BME280;59925;52.136;5.420;2023-04-15T01:05:38;101057.25;;;6.75;64.88
72061;BME280;59925;52.136;5.420;2023-04-15T01:08:05;101059.59;;;6.72;64.91
72061;BME280;59925;52.136;5.420;2023-04-15T01:10:32;101059.22;;;6.68;65.29
72061;BME280;59925;52.136;5.420;2023-04-15T01:12:58;101053.00;;;6.63;65.21
72061;BME280;59925;52.136;5.420;2023-04-15T01:15:25;101059.63;;;6.60;65.59
72061;BME280;59925;52.136;5.420;2023-04-15T01:17:51;101064.38;;;6.58;65.76
72061;BME280;59925;52.136;5.420;2023-04-15T01:20:18;101058.97;;;6.53;65.86
72061;BME280;59925;52.136;5.420;2023-04-15T01:22:45;101063.94;;;6.49;66.08
72061;BME280;59925;52.136;5.420;2023-04-15T01:25:17;101053.78;;;6.46;66.20
72061;BME280;59925;52.136;5.420;2023-04-15T01:27:44;101060.59;;;6.42;66.38
72061;BME280;59925;52.136;5.420;2023-04-15T01:30:10;101059.22;;;6.39;66.60
72061;BME280;59925;52.136;5.420;2023-04-15T01:32:37;101052.75;;;6.35;66.25
72061;BME280;59925;52.136;5.420;2023-04-15T01:35:04;101059.56;;;6.31;66.41
72061;BME280;59925;52.136;5.420;2023-04-15T01:37:31;101047.81;;;6.27;66.80
72061;BME280;59925;52.136;5.420;2023-04-15T01:39:58;101060.75;;;6.23;67.07
72061;BME280;59925;52.136;5.420;2023-04-15T01:42:25;101060.66;;;6.18;66.96
72061;BME280;59925;52.136;5.420;2023-04-15T01:44:53;101058.00;;;6.18;67.16
72061;BME280;59925;52.136;5.420;2023-04-15T01:47:19;101064.38;;;6.17;67.13
72061;BME280;59925;52.136;5.420;2023-04-15T01:49:46;101060.31;;;6.15;67.32
72061;BME280;59925;52.136;5.420;2023-04-15T01:52:12;101053.38;;;6.13;67.41
72061;BME280;59925;52.136;5.420;2023-04-15T01:54:39;101058.13;;;6.11;67.44
72061;BME280;59925;52.136;5.420;2023-04-15T01:57:06;101062.88;;;6.09;67.50
72061;BME280;59925;52.136;5.420;2023-04-15T01:59:32;101052.59;;;6.01;67.76
72061;BME280;59925;52.136;5.420;2023-04-15T02:01:58;101060.41;;;5.96;67.94
72061;BME280;59925;52.136;5.420;2023-04-15T02:04:25;101063.31;;;5.94;68.27
72061;BME280;59925;52.136;5.420;2023-04-15T02:06:53;101061.13;;;5.91;68.12
72061;BME280;59925;52.136;5.420;2023-04-15T02:09:19;101068.53;;;5.89;68.75
72061;BME280;59925;52.136;5.420;2023-04-15T02:11:46;101065.84;;;5.89;68.55
72061;BME280;59925;52.136;5.420;2023-04-15T02:14:12;101065.28;;;5.87;68.79
72061;BME280;59925;52.136;5.420;2023-04-15T02:16:39;101064.69;;;5.85;68.84
72061;BME280;59925;52.136;5.420;2023-04-15T02:19:06;101067.34;;;5.85;69.19
72061;BME280;59925;52.136;5.420;2023-04-15T02:21:33;101063.91;;;5.85;69.21
72061;BME280;59925;52.136;5.420;2023-04-15T02:24:00;101066.78;;;5.83;69.49
72061;BME280;59925;52.136;5.420;2023-04-15T02:26:27;101075.00;;;5.81;69.78
72061;BME280;59925;52.136;5.420;2023-04-15T02:28:57;101073.38;;;5.80;69.81
72061;BME280;59925;52.136;5.420;2023-04-15T02:31:24;101075.00;;;5.81;70.11
72061;BME280;59925;52.136;5.420;2023-04-15T02:33:51;101077.91;;;5.80;70.23
72061;BME280;59925;52.136;5.420;2023-04-15T02:36:17;101083.44;;;5.78;70.13
72061;BME280;59925;52.136;5.420;2023-04-15T02:38:44;101082.06;;;5.76;70.45
72061;BME280;59925;52.136;5.420;2023-04-15T02:41:10;101092.94;;;5.74;70.48
72061;BME280;59925;52.136;5.420;2023-04-15T02:43:37;101089.09;;;5.70;70.41
72061;BME280;59925;52.136;5.420;2023-04-15T02:46:05;101097.88;;;5.71;70.74
72061;BME280;59925;52.136;5.420;2023-04-15T02:48:32;101104.72;;;5.66;71.16
72061;BME280;59925;52.136;5.420;2023-04-15T02:51:12;101102.97;;;5.60;71.20
72061;BME280;59925;52.136;5.420;2023-04-15T02:53:39;101101.59;;;5.58;70.80
72061;BME280;59925;52.136;5.420;2023-04-15T02:56:06;101108.41;;;5.53;71.03
72061;BME280;59925;52.136;5.420;2023-04-15T02:58:34;101116.81;;;5.50;71.01
72061;BME280;59925;52.136;5.420;2023-04-15T03:01:01;101115.09;;;5.44;71.26
72061;BME280;59925;52.136;5.420;2023-04-15T03:03:28;101112.09;;;5.41;71.53
72061;BME280;59925;52.136;5.420;2023-04-15T03:05:55;101105.34;;;5.38;71.25
72061;BME280;59925;52.136;5.420;2023-04-15T03:08:21;101110.09;;;5.36;71.58
72061;BME280;59925;52.136;5.420;2023-04-15T03:10:48;101108.69;;;5.33;71.62
72061;BME280;59925;52.136;5.420;2023-04-15T03:13:14;101108.69;;;5.33;72.21
72061;BME280;59925;52.136;5.420;2023-04-15T03:15:40;101115.06;;;5.32;72.48
72061;BME280;59925;52.136;5.420;2023-04-15T03:18:07;101116.91;;;5.32;72.37
72061;BME280;59925;52.136;5.420;2023-04-15T03:20:33;101120.00;;;5.29;72.64
72061;BME280;59925;52.136;5.420;2023-04-15T03:23:01;101120.47;;;5.26;72.97
72061;BME280;59925;52.136;5.420;2023-04-15T03:25:27;101116.41;;;5.23;73.17
72061;BME280;59925;52.136;5.420;2023-04-15T03:27:54;101128.09;;;5.22;73.10
72061;BME280;59925;52.136;5.420;2023-04-15T03:30:20;101133.06;;;5.18;73.33
72061;BME280;59925;52.136;5.420;2023-04-15T03:32:47;101130.59;;;5.17;73.22
72061;BME280;59925;52.136;5.420;2023-04-15T03:35:14;101129.00;;;5.16;73.52
72061;BME280;59925;52.136;5.420;2023-04-15T03:37:40;101127.00;;;5.11;73.95
72061;BME280;59925;52.136;5.420;2023-04-15T03:40:07;101134.63;;;5.07;74.36
72061;BME280;59925;52.136;5.420;2023-04-15T03:42:35;101125.94;;;5.00;74.87
72061;BME280;59925;52.136;5.420;2023-04-15T03:45:01;101135.16;;;4.98;75.02
72061;BME280;59925;52.136;5.420;2023-04-15T03:47:28;101136.41;;;4.95;74.92
72061;BME280;59925;52.136;5.420;2023-04-15T03:49:55;101144.63;;;4.94;74.98
72061;BME280;59925;52.136;5.420;2023-04-15T03:52:21;101148.50;;;4.91;74.49
72061;BME280;59925;52.136;5.420;2023-04-15T03:54:48;101153.72;;;4.86;74.54
72061;BME280;59925;52.136;5.420;2023-04-15T03:57:14;101156.56;;;4.84;74.55
72061;BME280;59925;52.136;5.420;2023-04-15T03:59:41;101151.13;;;4.79;74.95
72061;BME280;59925;52.136;5.420;2023-04-15T04:02:07;101152.16;;;4.78;74.54
72061;BME280;59925;52.136;5.420;2023-04-15T04:04:34;101150.19;;;4.73;75.24
72061;BME280;59925;52.136;5.420;2023-04-15T04:07:00;101156.53;;;4.72;74.73
72061;BME280;59925;52.136;5.420;2023-04-15T04:09:27;101165.16;;;4.68;74.73
72061;BME280;59925;52.136;5.420;2023-04-15T04:11:54;101170.31;;;4.63;75.13
72061;BME280;59925;52.136;5.420;2023-04-15T04:14:21;101174.00;;;4.62;75.58
72061;BME280;59925;52.136;5.420;2023-04-15T04:16:54;101176.88;;;4.60;75.72
72061;BME280;59925;52.136;5.420;2023-04-15T04:19:21;101171.56;;;4.60;75.06
72061;BME280;59925;52.136;5.420;2023-04-15T04:21:48;101173.03;;;4.56;76.21
72061;BME280;59925;52.136;5.420;2023-04-15T04:24:14;101183.06;;;4.54;75.66
72061;BME280;59925;52.136;5.420;2023-04-15T04:26:41;101183.06;;;4.54;76.00
72061;BME280;59925;52.136;5.420;2023-04-15T04:29:08;101180.41;;;4.54;76.24
72061;BME280;59925;52.136;5.420;2023-04-15T04:31:34;101185.13;;;4.52;75.95
72061;BME280;59925;52.136;5.420;2023-04-15T04:34:01;101186.16;;;4.51;75.83
72061;BME280;59925;52.136;5.420;2023-04-15T04:36:27;101192.59;;;4.43;76.47
72061;BME280;59925;52.136;5.420;2023-04-15T04:38:53;101202.59;;;4.41;76.42
72061;BME280;59925;52.136;5.420;2023-04-15T04:41:20;101200.16;;;4.39;75.93
72061;BME280;59925;52.136;5.420;2023-04-15T04:43:47;101201.19;;;4.38;76.51
72061;BME280;59925;52.136;5.420;2023-04-15T04:46:13;101215.28;;;4.39;75.83
72061;BME280;59925;52.136;5.420;2023-04-15T04:48:40;101217.34;;;4.37;75.77
72061;BME280;59925;52.136;5.420;2023-04-15T04:51:06;101225.72;;;4.34;76.11
72061;BME280;59925;52.136;5.420;2023-04-15T04:53:33;101231.88;;;4.34;76.01
72061;BME280;59925;52.136;5.420;2023-04-15T04:56:00;101230.25;;;4.33;76.28
72061;BME280;59925;52.136;5.420;2023-04-15T04:58:26;101236.56;;;4.32;77.00
72061;BME280;59925;52.136;5.420;2023-04-15T05:00:53;101242.91;;;4.31;77.09
72061;BME280;59925;52.136;5.420;2023-04-15T05:03:20;101242.91;;;4.31;77.06
72061;BME280;59925;52.136;5.420;2023-04-15T05:05:47;101239.66;;;4.29;77.84
72061;BME280;59925;52.136;5.420;2023-04-15T05:08:15;101240.25;;;4.31;77.69
72061;BME280;59925;52.136;5.420;2023-04-15T05:10:42;101254.13;;;4.33;77.70
72061;BME280;59925;52.136;5.420;2023-04-15T05:13:08;101255.31;;;4.37;77.90
72061;BME280;59925;52.136;5.420;2023-04-15T05:15:34;101262.63;;;4.42;78.27
72061;BME280;59925;52.136;5.420;2023-04-15T05:18:02;101264.63;;;4.47;78.34
72061;BME280;59925;52.136;5.420;2023-04-15T05:20:28;101264.78;;;4.52;78.52
72061;BME280;59925;52.136;5.420;2023-04-15T05:22:55;101270.69;;;4.54;78.19
72061;BME280;59925;52.136;5.420;2023-04-15T05:25:21;101277.19;;;4.58;78.80
72061;BME280;59925;52.136;5.420;2023-04-15T05:27:48;101281.47;;;4.59;78.58
72061;BME280;59925;52.136;5.420;2023-04-15T05:30:14;101277.78;;;4.60;78.67
72061;BME280;59925;52.136;5.420;2023-04-15T05:32:41;101285.09;;;4.65;78.96
72061;BME280;59925;52.136;5.420;2023-04-15T05:35:07;101283.84;;;4.67;79.27
72061;BME280;59925;52.136;5.420;2023-04-15T05:37:34;101293.44;;;4.68;79.22
72061;BME280;59925;52.136;5.420;2023-04-15T05:40:01;101303.63;;;4.71;79.47
72061;BME280;59925;52.136;5.420;2023-04-15T05:42:27;101306.88;;;4.73;80.21
72061;BME280;59925;52.136;5.420;2023-04-15T05:44:54;101310.94;;;4.76;79.42
72061;BME280;59925;52.136;5.420;2023-04-15T05:47:20;101315.59;;;4.81;79.55
72061;BME280;59925;52.136;5.420;2023-04-15T05:49:47;101317.00;;;4.83;79.52
72061;BME280;59925;52.136;5.420;2023-04-15T05:52:13;101318.78;;;4.89;79.52
72061;BME280;59925;52.136;5.420;2023-04-15T05:54:39;101318.94;;;5.13;80.64
72061;BME280;59925;52.136;5.420;2023-04-15T05:57:06;101321.03;;;5.30;79.91
72061;BME280;59925;52.136;5.420;2023-04-15T05:59:33;101322.34;;;5.39;79.47
72061;BME280;59925;52.136;5.420;2023-04-15T06:01:59;101323.31;;;5.45;79.05
72061;BME280;59925;52.136;5.420;2023-04-15T06:04:26;101329.81;;;5.49;79.34
72061;BME280;59925;52.136;5.420;2023-04-15T06:06:53;101332.81;;;5.52;78.90
72061;BME280;59925;52.136;5.420;2023-04-15T06:09:19;101333.72;;;5.46;78.90
72061;BME280;59925;52.136;5.420;2023-04-15T06:11:46;101341.13;;;5.44;78.77
72061;BME280;59925;52.136;5.420;2023-04-15T06:14:12;101345.41;;;5.45;79.31
72061;BME280;59925;52.136;5.420;2023-04-15T06:16:38;101344.50;;;5.51;79.45
72061;BME280;59925;52.136;5.420;2023-04-15T06:19:05;101349.97;;;5.57;79.81
72061;BME280;59925;52.136;5.420;2023-04-15T06:21:31;101357.56;;;5.72;80.27
72061;BME280;59925;52.136;5.420;2023-04-15T06:23:58;101353.38;;;6.13;80.58
72061;BME280;59925;52.136;5.420;2023-04-15T06:26:29;101357.41;;;6.58;79.67
72061;BME280;59925;52.136;5.420;2023-04-15T06:28:56;101365.06;;;6.66;78.15
72061;BME280;59925;52.136;5.420;2023-04-15T06:31:22;101369.09;;;6.57;78.22
72061;BME280;59925;52.136;5.420;2023-04-15T06:33:49;101362.16;;;6.56;78.41
72061;BME280;59925;52.136;5.420;2023-04-15T06:36:15;101375.59;;;6.61;78.52
72061;BME280;59925;52.136;5.420;2023-04-15T06:38:42;101376.09;;;6.70;78.48
72061;BME280;59925;52.136;5.420;2023-04-15T06:41:08;101381.31;;;6.77;78.59
72061;BME280;59925;52.136;5.420;2023-04-15T06:43:35;101379.81;;;6.81;78.99
72061;BME280;59925;52.136;5.420;2023-04-15T06:46:01;101393.59;;;6.89;78.77
72061;BME280;59925;52.136;5.420;2023-04-15T06:48:28;101401.25;;;6.98;78.93
72061;BME280;59925;52.136;5.420;2023-04-15T06:50:54;101397.19;;;7.07;78.98
72061;BME280;59925;52.136;5.420;2023-04-15T06:53:21;101402.16;;;7.15;78.80
72061;BME280;59925;52.136;5.420;2023-04-15T06:55:48;101408.53;;;7.26;78.82
72061;BME280;59925;52.136;5.420;2023-04-15T06:58:14;101412.72;;;7.46;79.01
72061;BME280;59925;52.136;5.420;2023-04-15T07:00:41;101423.22;;;7.64;78.95
72061;BME280;59925;52.136;5.420;2023-04-15T07:03:08;101420.41;;;7.83;78.77
72061;BME280;59925;52.136;5.420;2023-04-15T07:05:36;101426.47;;;8.07;78.65
72061;BME280;59925;52.136;5.420;2023-04-15T07:08:04;101432.69;;;8.25;78.28
72061;BME280;59925;52.136;5.420;2023-04-15T07:10:30;101426.31;;;8.43;77.91
72061;BME280;59925;52.136;5.420;2023-04-15T07:12:57;101433.84;;;8.58;77.72
72061;BME280;59925;52.136;5.420;2023-04-15T07:15:23;101441.47;;;8.66;77.47
72061;BME280;59925;52.136;5.420;2023-04-15T07:17:50;101444.72;;;8.68;77.54
72061;BME280;59925;52.136;5.420;2023-04-15T07:20:16;101444.72;;;8.68;77.21
72061;BME280;59925;52.136;5.420;2023-04-15T07:22:43;101451.19;;;8.72;77.10
72061;BME280;59925;52.136;5.420;2023-04-15T07:25:09;101457.66;;;8.77;76.72
72061;BME280;59925;52.136;5.420;2023-04-15T07:27:36;101456.38;;;8.79;76.39
72061;BME280;59925;52.136;5.420;2023-04-15T07:30:02;101462.22;;;8.93;76.46
72061;BME280;59925;52.136;5.420;2023-04-15T07:32:29;101463.25;;;9.09;76.09
72061;BME280;59925;52.136;5.420;2023-04-15T07:34:56;101468.13;;;9.29;76.03
72061;BME280;59925;52.136;5.420;2023-04-15T07:37:23;101464.59;;;9.46;75.19
72061;BME280;59925;52.136;5.420;2023-04-15T07:39:49;101463.81;;;9.68;75.20
72061;BME280;59925;52.136;5.420;2023-04-15T07:42:16;101467.91;;;9.92;74.45
72061;BME280;59925;52.136;5.420;2023-04-15T07:44:42;101477.53;;;10.16;73.79
72061;BME280;59925;52.136;5.420;2023-04-15T07:47:08;101475.97;;;10.42;73.20
72061;BME280;59925;52.136;5.420;2023-04-15T07:49:35;101477.75;;;10.58;72.78
72061;BME280;59925;52.136;5.420;2023-04-15T07:52:02;101480.00;;;10.72;72.54
72061;BME280;59925;52.136;5.420;2023-04-15T07:54:29;101482.03;;;10.87;71.98
72061;BME280;59925;52.136;5.420;2023-04-15T07:56:55;101483.66;;;10.88;70.61
72061;BME280;59925;52.136;5.420;2023-04-15T07:59:22;101482.72;;;11.04;69.58
72061;BME280;59925;52.136;5.420;2023-04-15T08:01:48;101493.03;;;11.23;69.14
72061;BME280;59925;52.136;5.420;2023-04-15T08:04:15;101493.59;;;11.25;68.42
72061;BME280;59925;52.136;5.420;2023-04-15T08:06:42;101485.81;;;11.24;67.34
72061;BME280;59925;52.136;5.420;2023-04-15T08:09:09;101491.41;;;11.22;67.06
72061;BME280;59925;52.136;5.420;2023-04-15T08:11:36;101499.53;;;11.32;67.19
72061;BME280;59925;52.136;5.420;2023-04-15T08:14:02;101502.38;;;11.58;66.83
72061;BME280;59925;52.136;5.420;2023-04-15T08:16:29;101504.91;;;11.80;65.93
72061;BME280;59925;52.136;5.420;2023-04-15T08:18:56;101501.56;;;12.06;65.65
72061;BME280;59925;52.136;5.420;2023-04-15T08:21:23;101506.19;;;12.16;64.77
72061;BME280;59925;52.136;5.420;2023-04-15T08:23:51;101499.75;;;12.17;64.11
72061;BME280;59925;52.136;5.420;2023-04-15T08:26:19;101502.97;;;12.24;64.06
72061;BME280;59925;52.136;5.420;2023-04-15T08:28:46;101515.66;;;12.34;63.66
72061;BME280;59925;52.136;5.420;2023-04-15T08:31:16;101506.81;;;12.49;63.38
72061;BME280;59925;52.136;5.420;2023-04-15T08:33:43;101511.91;;;12.55;62.80
72061;BME280;59925;52.136;5.420;2023-04-15T08:36:09;101517.06;;;12.57;62.36
72061;BME280;59925;52.136;5.420;2023-04-15T08:38:36;101523.50;;;12.56;61.45
72061;BME280;59925;52.136;5.420;2023-04-15T08:41:07;101515.72;;;12.60;61.95
72061;BME280;59925;52.136;5.420;2023-04-15T08:43:45;101522.16;;;12.64;61.45
72061;BME280;59925;52.136;5.420;2023-04-15T08:46:12;101534.28;;;12.66;61.52
72061;BME280;59925;52.136;5.420;2023-04-15T08:48:40;101539.09;;;12.59;61.38
72061;BME280;59925;52.136;5.420;2023-04-15T08:51:07;101539.66;;;12.56;61.28
72061;BME280;59925;52.136;5.420;2023-04-15T08:53:34;101547.22;;;12.69;60.87
72061;BME280;59925;52.136;5.420;2023-04-15T08:56:03;101550.19;;;12.88;60.95
72061;BME280;59925;52.136;5.420;2023-04-15T08:58:31;101560.97;;;12.99;60.82
72061;BME280;59925;52.136;5.420;2023-04-15T09:00:58;101562.88;;;13.09;60.67
72061;BME280;59925;52.136;5.420;2023-04-15T09:03:25;101558.56;;;13.23;59.89
72061;BME280;59925;52.136;5.420;2023-04-15T09:05:52;101569.34;;;13.44;59.64
72061;BME280;59925;52.136;5.420;2023-04-15T09:08:18;101569.59;;;13.47;59.47
72061;BME280;59925;52.136;5.420;2023-04-15T09:10:45;101562.56;;;13.57;59.17
72061;BME280;59925;52.136;5.420;2023-04-15T09:13:12;101571.47;;;13.68;59.01
72061;BME280;59925;52.136;5.420;2023-04-15T09:15:38;101579.00;;;13.66;58.94
72061;BME280;59925;52.136;5.420;2023-04-15T09:18:05;101578.72;;;13.72;59.01
72061;BME280;59925;52.136;5.420;2023-04-15T09:20:41;101590.00;;;13.95;59.31
72061;BME280;59925;52.136;5.420;2023-04-15T09:23:12;101584.25;;;14.17;58.18
72061;BME280;59925;52.136;5.420;2023-04-15T09:25:40;101602.06;;;14.18;57.83
72061;BME280;59925;52.136;5.420;2023-04-15T09:28:10;101596.88;;;14.32;57.32
72061;BME280;59925;52.136;5.420;2023-04-15T09:30:37;101603.38;;;14.26;57.58
72061;BME280;59925;52.136;5.420;2023-04-15T09:33:03;101604.97;;;14.32;57.26
72061;BME280;59925;52.136;5.420;2023-04-15T09:35:34;101614.16;;;14.26;56.99
72061;BME280;59925;52.136;5.420;2023-04-15T09:38:05;101611.22;;;14.22;57.07
72061;BME280;59925;52.136;5.420;2023-04-15T09:40:40;101606.94;;;14.11;57.31
72061;BME280;59925;52.136;5.420;2023-04-15T09:43:08;101602.81;;;14.29;57.24
72061;BME280;59925;52.136;5.420;2023-04-15T09:45:38;101609.03;;;14.30;57.45
72061;BME280;59925;52.136;5.420;2023-04-15T09:48:16;101606.06;;;14.31;57.34
72061;BME280;59925;52.136;5.420;2023-04-15T09:50:43;101615.25;;;14.25;56.56
72061;BME280;59925;52.136;5.420;2023-04-15T09:53:10;101609.59;;;14.16;56.57
72061;BME280;59925;52.136;5.420;2023-04-15T09:55:37;101605.28;;;14.25;56.51
72061;BME280;59925;52.136;5.420;2023-04-15T09:58:31;101612.84;;;14.18;56.67
72061;BME280;59925;52.136;5.420;2023-04-15T10:00:59;101616.06;;;14.25;55.82
72061;BME280;59925;52.136;5.420;2023-04-15T10:03:28;101626.81;;;14.36;56.11
72061;BME280;59925;52.136;5.420;2023-04-15T10:05:58;101631.06;;;14.47;56.16
72061;BME280;59925;52.136;5.420;2023-04-15T10:08:30;101625.88;;;14.71;56.37
72061;BME280;59925;52.136;5.420;2023-04-15T10:10:59;101636.94;;;14.65;56.02
72061;BME280;59925;52.136;5.420;2023-04-15T10:13:29;101639.63;;;14.75;55.44
72061;BME280;59925;52.136;5.420;2023-04-15T10:16:04;101631.44;;;14.91;54.55
72061;BME280;59925;52.136;5.420;2023-04-15T10:18:34;101637.41;;;15.27;53.72
72061;BME280;59925;52.136;5.420;2023-04-15T10:21:01;101629.50;;;15.36;53.52
72061;BME280;59925;52.136;5.420;2023-04-15T10:23:27;101633.25;;;15.40;53.80
72061;BME280;59925;52.136;5.420;2023-04-15T10:25:54;101637.31;;;15.72;53.82
72061;BME280;59925;52.136;5.420;2023-04-15T10:28:21;101634.66;;;15.97;53.29
72061;BME280;59925;52.136;5.420;2023-04-15T10:30:48;101631.59;;;16.03;52.68
72061;BME280;59925;52.136;5.420;2023-04-15T10:33:20;101629.31;;;15.91;53.49
72061;BME280;59925;52.136;5.420;2023-04-15T10:35:48;101631.63;;;16.28;52.92
72061;BME280;59925;52.136;5.420;2023-04-15T10:38:43;101637.72;;;16.14;52.99
72061;BME280;59925;52.136;5.420;2023-04-15T10:41:31;101641.69;;;16.22;53.49
72061;BME280;59925;52.136;5.420;2023-04-15T10:44:01;101648.41;;;16.24;52.32
72061;BME280;59925;52.136;5.420;2023-04-15T10:46:44;101663.75;;;15.75;52.51
72061;BME280;59925;52.136;5.420;2023-04-15T10:49:13;101660.94;;;15.56;53.20
72061;BME280;59925;52.136;5.420;2023-04-15T10:51:42;101658.34;;;15.75;53.06
72061;BME280;59925;52.136;5.420;2023-04-15T10:56:41;101664.88;;;16.28;52.00
72061;BME280;59925;52.136;5.420;2023-04-15T10:59:09;101664.66;;;16.24;51.66
72061;BME280;59925;52.136;5.420;2023-04-15T11:02:05;101668.91;;;16.06;52.27
72061;BME280;59925;52.136;5.420;2023-04-15T11:04:55;101676.19;;;15.76;52.03
72061;BME280;59925;52.136;5.420;2023-04-15T11:12:39;101671.69;;;16.50;50.28
72061;BME280;59925;52.136;5.420;2023-04-15T11:15:31;101679.97;;;16.59;50.49
72061;BME280;59925;52.136;5.420;2023-04-15T11:18:22;101676.56;;;16.48;50.21
72061;BME280;59925;52.136;5.420;2023-04-15T11:20:53;101676.84;;;16.22;49.57
72061;BME280;59925;52.136;5.420;2023-04-15T11:23:38;101685.94;;;16.31;50.33
72061;BME280;59925;52.136;5.420;2023-04-15T11:26:09;101686.75;;;16.56;50.67
72061;BME280;59925;52.136;5.420;2023-04-15T11:28:40;101671.09;;;16.96;50.17
72061;BME280;59925;52.136;5.420;2023-04-15T11:31:12;101684.22;;;17.27;49.92
72061;BME280;59925;52.136;5.420;2023-04-15T11:33:46;101683.59;;;16.92;49.16
72061;BME280;59925;52.136;5.420;2023-04-15T11:36:18;101691.56;;;16.83;49.98
72061;BME280;59925;52.136;5.420;2023-04-15T11:38:46;101687.66;;;16.95;49.81
72061;BME280;59925;52.136;5.420;2023-04-15T11:41:32;101682.03;;;17.10;49.29
72061;BME280;59925;52.136;5.420;2023-04-15T11:44:00;101687.94;;;17.31;49.55
72061;BME280;59925;52.136;5.420;2023-04-15T11:46:28;101693.75;;;17.58;48.01
72061;BME280;59925;52.136;5.420;2023-04-15T11:48:56;101681.56;;;17.74;48.16
72061;BME280;59925;52.136;5.420;2023-04-15T11:51:22;101691.09;;;17.72;48.38
72061;BME280;59925;52.136;5.420;2023-04-15T11:53:49;101697.31;;;17.39;48.06
72061;BME280;59925;52.136;5.420;2023-04-15T11:56:21;101696.19;;;17.40;47.99
72061;BME280;59925;52.136;5.420;2023-04-15T11:58:58;101706.84;;;17.18;47.87
72061;BME280;59925;52.136;5.420;2023-04-15T12:01:36;101706.56;;;17.19;48.46
72061;BME280;59925;52.136;5.420;2023-04-15T12:04:11;101711.13;;;17.57;47.89
72061;BME280;59925;52.136;5.420;2023-04-15T12:06:38;101716.00;;;17.74;47.93
72061;BME280;59925;52.136;5.420;2023-04-15T12:09:11;101712.09;;;17.80;46.91
72061;BME280;59925;52.136;5.420;2023-04-15T12:11:40;101717.44;;;17.14;47.08
72061;BME280;59925;52.136;5.420;2023-04-15T12:14:12;101733.69;;;16.46;47.92
72061;BME280;59925;52.136;5.420;2023-04-15T12:16:45;101724.34;;;17.06;49.49
72061;BME280;59925;52.136;5.420;2023-04-15T12:19:22;101733.94;;;17.18;48.21
72061;BME280;59925;52.136;5.420;2023-04-15T12:21:49;101728.03;;;16.91;47.94
72061;BME280;59925;52.136;5.420;2023-04-15T12:24:20;101740.94;;;16.75;49.03
72061;BME280;59925;52.136;5.420;2023-04-15T12:26:56;101740.31;;;16.83;47.98
72061;BME280;59925;52.136;5.420;2023-04-15T12:29:27;101735.69;;;16.84;48.22
72061;BME280;59925;52.136;5.420;2023-04-15T12:31:56;101757.53;;;16.44;48.99
72061;BME280;59925;52.136;5.420;2023-04-15T12:34:40;101759.16;;;16.16;50.02
72061;BME280;59925;52.136;5.420;2023-04-15T12:37:09;101755.75;;;16.05;50.80
72061;BME280;59925;52.136;5.420;2023-04-15T12:39:38;101759.31;;;16.00;50.29
72061;BME280;59925;52.136;5.420;2023-04-15T12:42:05;101755.25;;;15.98;50.87
72061;BME280;59925;52.136;5.420;2023-04-15T12:44:34;101764.13;;;16.03;50.84
72061;BME280;59925;52.136;5.420;2023-04-15T12:47:01;101761.84;;;15.86;50.82
72061;BME280;59925;52.136;5.420;2023-04-15T12:49:29;101777.13;;;15.61;51.12
72061;BME280;59925;52.136;5.420;2023-04-15T12:51:57;101780.50;;;15.83;51.49
72061;BME280;59925;52.136;5.420;2023-04-15T12:54:28;101787.88;;;15.72;50.75
72061;BME280;59925;52.136;5.420;2023-04-15T12:56:56;101776.84;;;15.63;51.14
72061;BME280;59925;52.136;5.420;2023-04-15T12:59:23;101790.41;;;15.58;51.77
72061;BME280;59925;52.136;5.420;2023-04-15T13:01:50;101784.56;;;16.15;51.35
72061;BME280;59925;52.136;5.420;2023-04-15T13:04:18;101789.56;;;16.61;50.36
72061;BME280;59925;52.136;5.420;2023-04-15T13:06:46;101786.91;;;16.56;49.15
72061;BME280;59925;52.136;5.420;2023-04-15T13:09:12;101799.44;;;15.77;50.81